Time;durP1;ratioP1;P1;durP2;ratioP2;P2;SDS_P1;SDS_P2;PMS_P1;PMS_P2;Temp;Humidity;BMP_temperature;BMP_pressure;BME280_temperature;BME280_humidity;BME280_pressure;Samples;Min_cycle;Max_cycle;Signal;HPM_P1;HPM_P2
2021/12/07 00:02:03;;;;;;;12.63;7.33;;;;;;;-1.19;100.00;95521.22;5029823;28;20460;-76
2021/12/07 00:04:28;;;;;;;13.27;7.47;;;;;;;-1.16;100.00;95525.34;5029954;28;20436;-76
2021/12/07 00:06:55;;;;;;;14.27;8.03;;;;;;;-1.12;100.00;95511.28;5029459;28;20493;-76
2021/12/07 00:09:22;;;;;;;12.80;7.70;;;;;;;-1.07;100.00;95511.81;5029629;28;20040;-75
2021/12/07 00:11:49;;;;;;;13.13;7.20;;;;;;;-1.06;100.00;95508.28;5013330;28;20467;-76
2021/12/07 00:14:23;;;;;;;11.87;6.73;;;;;;;-0.99;100.00;95517.25;5012985;28;20483;-75
2021/12/07 00:16:50;;;;;;;12.97;6.90;;;;;;;-1.00;100.00;95515.63;5030717;28;20484;-76
2021/12/07 00:19:16;;;;;;;12.57;7.20;;;;;;;-0.92;100.00;95522.81;5029310;28;20459;-75
2021/12/07 00:21:43;;;;;;;13.77;7.77;;;;;;;-0.85;100.00;95524.84;5029223;28;20806;-75
2021/12/07 00:24:12;;;;;;;13.00;7.57;;;;;;;-0.80;100.00;95535.72;5029315;28;20029;-75
2021/12/07 00:26:39;;;;;;;12.77;7.47;;;;;;;-0.82;100.00;95532.41;5029306;28;20451;-75
2021/12/07 00:29:06;;;;;;;12.47;7.37;;;;;;;-0.81;100.00;95535.78;5029328;28;21030;-75
2021/12/07 00:31:43;;;;;;;12.17;7.27;;;;;;;-0.74;100.00;95537.00;5032410;28;20466;-75
2021/12/07 00:34:23;;;;;;;14.93;8.83;;;;;;;-0.75;100.00;95535.38;5032536;28;20859;-76
2021/12/07 00:36:50;;;;;;;12.73;7.67;;;;;;;-0.71;100.00;95532.47;5048973;28;20493;-75
2021/12/07 00:39:19;;;;;;;15.40;8.53;;;;;;;-0.69;100.00;95536.72;5048889;28;20423;-76
2021/12/07 00:41:47;;;;;;;12.90;8.17;;;;;;;-0.67;100.00;95524.50;5048587;28;20467;-76
2021/12/07 00:44:16;;;;;;;13.20;8.43;;;;;;;-0.58;100.00;95524.69;5048497;28;20987;-75
2021/12/07 00:46:42;;;;;;;14.60;7.93;;;;;;;-0.61;100.00;95526.66;5048866;28;20442;-76
2021/12/07 00:49:07;;;;;;;12.00;7.10;;;;;;;-0.64;100.00;95507.03;5032139;28;21007;-76
2021/12/07 00:51:33;;;;;;;12.90;6.60;;;;;;;-0.61;100.00;95496.47;5032026;28;20492;-76
2021/12/07 00:53:59;;;;;;;15.10;8.53;;;;;;;-0.62;100.00;95487.09;5048436;28;20863;-76
2021/12/07 00:56:25;;;;;;;14.77;9.10;;;;;;;-0.66;100.00;95475.34;5048189;28;20029;-75
2021/12/07 00:58:51;;;;;;;12.40;7.90;;;;;;;-0.61;100.00;95475.00;5048624;28;20021;-76
2021/12/07 01:01:19;;;;;;;12.50;7.23;;;;;;;-0.63;100.00;95482.88;5030317;28;20036;-76
2021/12/07 01:03:45;;;;;;;15.13;9.00;;;;;;;-0.64;100.00;95481.22;5012195;28;20444;-76
2021/12/07 01:25:06;;;;;;;13.53;8.00;;;;;;;-0.44;100.00;95474.63;5027880;28;21024;-77
2021/12/07 01:27:32;;;;;;;15.00;8.67;;;;;;;-0.41;100.00;95474.41;5028606;28;20871;-77
2021/12/07 01:30:11;;;;;;;15.10;9.37;;;;;;;-0.42;100.00;95477.91;5020932;28;20603;-78
2021/12/07 01:35:37;;;;;;;14.50;8.47;;;;;;;-0.28;100.00;95489.84;5037649;28;20440;-77
2021/12/07 01:48:01;;;;;;;16.30;10.87;;;;;;;-0.57;100.00;95497.94;5022117;28;20535;-77
2021/12/07 01:50:49;;;;;;;14.00;8.57;;;;;;;-0.60;100.00;95503.31;5017474;28;20041;-76
2021/12/07 01:57:51;;;;;;;16.73;9.40;;;;;;;-0.65;100.00;95509.72;5019814;28;20455;-77
2021/12/07 02:01:35;;;;;;;16.83;8.57;;;;;;;-0.77;100.00;95496.78;5018818;28;20495;-77
2021/12/07 02:04:00;;;;;;;14.13;8.77;;;;;;;-0.79;100.00;95492.63;5020708;28;20452;-76
2021/12/07 02:06:26;;;;;;;15.47;9.53;;;;;;;-0.79;100.00;95483.13;5051661;28;20488;-76
2021/12/07 02:08:52;;;;;;;15.43;8.73;;;;;;;-0.85;100.00;95486.13;5032217;28;20532;-77
2021/12/07 02:11:19;;;;;;;16.37;9.00;;;;;;;-0.76;100.00;95484.69;5035182;28;20036;-77
2021/12/07 02:16:13;;;;;;;16.03;9.30;;;;;;;-0.73;100.00;95477.53;5028254;28;20838;-77
2021/12/07 02:18:40;;;;;;;14.87;9.23;;;;;;;-0.78;100.00;95474.44;5033419;28;20471;-77
2021/12/07 02:21:33;;;;;;;15.83;9.47;;;;;;;-0.81;100.00;95487.56;5041012;28;20462;-77
2021/12/07 02:24:06;;;;;;;16.37;8.23;;;;;;;-0.78;100.00;95487.34;5020870;28;20025;-77
2021/12/07 02:26:32;;;;;;;15.10;9.20;;;;;;;-0.80;100.00;95471.16;5007204;28;20575;-77
2021/12/07 02:28:58;;;;;;;18.27;9.90;;;;;;;-0.81;100.00;95472.06;5031216;28;20554;-77
2021/12/07 02:31:25;;;;;;;15.63;8.90;;;;;;;-0.75;100.00;95476.81;5037054;28;20526;-77
2021/12/07 02:33:51;;;;;;;14.40;8.80;;;;;;;-0.78;100.00;95471.03;5042571;28;20439;-77
2021/12/07 02:36:17;;;;;;;16.73;9.00;;;;;;;-0.67;100.00;95475.44;5010810;28;20463;-77
2021/12/07 02:38:43;;;;;;;13.23;7.80;;;;;;;-0.68;100.00;95466.88;5025087;28;20453;-77
2021/12/07 02:41:11;;;;;;;14.20;7.93;;;;;;;-0.64;100.00;95470.06;5019167;28;20109;-77
2021/12/07 02:43:37;;;;;;;14.30;8.43;;;;;;;-0.59;100.00;95462.81;5026458;28;20712;-77
2021/12/07 02:46:03;;;;;;;14.93;8.13;;;;;;;-0.60;100.00;95468.94;5022955;28;20558;-77
2021/12/07 02:48:30;;;;;;;12.90;7.03;;;;;;;-0.54;100.00;95471.03;5036120;28;20547;-77
2021/12/07 02:50:58;;;;;;;13.10;8.03;;;;;;;-0.59;100.00;95478.31;5021174;28;20453;-77
2021/12/07 02:53:28;;;;;;;12.73;6.90;;;;;;;-0.62;100.00;95474.19;5026962;28;20458;-77
2021/12/07 02:55:57;;;;;;;13.17;7.63;;;;;;;-0.62;100.00;95476.78;5024105;28;20511;-77
2021/12/07 02:58:25;;;;;;;14.23;7.80;;;;;;;-0.58;100.00;95474.78;5043627;28;20874;-77
2021/12/07 03:01:00;;;;;;;12.07;6.97;;;;;;;-0.55;100.00;95475.38;5019551;28;20471;-77
2021/12/07 03:03:29;;;;;;;12.20;6.47;;;;;;;-0.55;100.00;95477.97;5033156;28;21051;-77
2021/12/07 03:06:10;;;;;;;9.70;6.33;;;;;;;-0.50;100.00;95477.66;5031170;28;20455;-77
2021/12/07 03:27:41;;;;;;;12.57;7.13;;;;;;;-0.56;100.00;95483.25;5030162;28;20488;-77
2021/12/07 03:30:08;;;;;;;13.43;6.90;;;;;;;-0.59;100.00;95492.03;5017922;28;20451;-76
2021/12/07 03:32:38;;;;;;;11.23;6.70;;;;;;;-0.56;100.00;95503.91;5026454;28;20471;-77
2021/12/07 03:35:06;;;;;;;12.20;6.73;;;;;;;-0.56;100.00;95506.50;5026042;28;20494;-77
2021/12/07 03:37:31;;;;;;;11.77;7.00;;;;;;;-0.55;100.00;95508.16;5017325;28;20555;-77
2021/12/07 03:39:58;;;;;;;12.40;6.93;;;;;;;-0.56;100.00;95503.91;5023044;28;20551;-76
2021/12/07 03:42:23;;;;;;;12.40;6.87;;;;;;;-0.54;100.00;95512.38;5033238;28;20897;-76
2021/12/07 03:44:49;;;;;;;11.37;6.33;;;;;;;-0.58;100.00;95509.19;5024131;28;20084;-76
2021/12/07 03:47:17;;;;;;;10.80;5.97;;;;;;;-0.57;100.00;95516.00;5015975;28;20494;-77
2021/12/07 03:49:42;;;;;;;10.40;6.43;;;;;;;-0.58;100.00;95521.28;5019869;28;20441;-76
2021/12/07 03:52:08;;;;;;;10.33;6.73;;;;;;;-0.53;100.00;95511.44;5028351;28;20171;-77
2021/12/07 03:54:35;;;;;;;11.20;5.83;;;;;;;-0.55;100.00;95523.63;5017248;28;20029;-76
2021/12/07 03:57:00;;;;;;;10.33;6.10;;;;;;;-0.53;100.00;95530.34;5036869;28;20536;-76
2021/12/07 03:59:26;;;;;;;10.03;6.03;;;;;;;-0.57;100.00;95526.34;5014067;28;20116;-77
2021/12/07 04:01:52;;;;;;;10.40;5.87;;;;;;;-0.55;100.00;95527.03;5013862;28;20483;-77
2021/12/07 04:04:22;;;;;;;9.83;5.80;;;;;;;-0.56;100.00;95540.91;5030700;28;20038;-76
2021/12/07 04:06:48;;;;;;;10.10;6.00;;;;;;;-0.56;100.00;95534.91;5018554;28;20475;-76
2021/12/07 04:09:14;;;;;;;10.83;5.30;;;;;;;-0.55;100.00;95539.13;5038029;28;20513;-77
2021/12/07 04:11:40;;;;;;;10.87;5.87;;;;;;;-0.56;100.00;95534.91;5023239;28;20395;-77
2021/12/07 04:14:06;;;;;;;11.03;5.63;;;;;;;-0.51;100.00;95543.16;5009896;28;20037;-76
2021/12/07 04:16:34;;;;;;;11.17;6.33;;;;;;;-0.54;100.00;95556.28;5042290;28;20018;-77
2021/12/07 04:19:00;;;;;;;11.80;5.60;;;;;;;-0.56;100.00;95553.00;5035881;28;20547;-77
2021/12/07 04:21:26;;;;;;;9.93;5.53;;;;;;;-0.53;100.00;95566.50;5029542;28;21092;-77
2021/12/07 04:23:52;;;;;;;9.47;4.93;;;;;;;-0.51;100.00;95559.47;5019007;28;20452;-77
2021/12/07 04:26:18;;;;;;;9.50;5.30;;;;;;;-0.56;100.00;95558.16;5039379;28;21074;-77
2021/12/07 04:28:44;;;;;;;8.37;5.00;;;;;;;-0.53;100.00;95565.69;5027987;28;20032;-77
2021/12/07 04:31:11;;;;;;;10.57;5.17;;;;;;;-0.50;100.00;95568.06;5016314;28;20456;-76
2021/12/07 04:33:37;;;;;;;9.37;5.53;;;;;;;-0.52;100.00;95577.66;5034301;28;20835;-76
2021/12/07 04:36:06;;;;;;;8.97;4.70;;;;;;;-0.50;100.00;95578.41;5042514;28;20459;-76
2021/12/07 04:38:32;;;;;;;7.37;3.83;;;;;;;-0.51;100.00;95568.97;5038634;28;20482;-77
2021/12/07 04:40:58;;;;;;;6.97;3.50;;;;;;;-0.51;100.00;95566.38;5042779;28;20509;-77
2021/12/07 04:43:24;;;;;;;6.93;3.90;;;;;;;-0.52;100.00;95573.31;5042541;28;20029;-77
2021/12/07 04:59:03;;;;;;;9.00;4.23;;;;;;;-0.48;100.00;95586.84;5035397;28;20467;-77
2021/12/07 05:01:29;;;;;;;7.70;4.40;;;;;;;-0.46;100.00;95590.16;5013139;28;21279;-77
2021/12/07 05:03:58;;;;;;;7.00;3.63;;;;;;;-0.43;100.00;95591.69;5031515;28;20443;-77
2021/12/07 05:06:28;;;;;;;9.10;5.23;;;;;;;-0.45;100.00;95599.53;5030320;28;20472;-77
2021/12/07 05:09:03;;;;;;;6.63;3.83;;;;;;;-0.42;100.00;95591.56;5019020;28;20465;-77
2021/12/07 05:14:42;;;;;;;8.50;4.60;;;;;;;-0.44;100.00;95601.19;5029515;28;20487;-77
2021/12/07 05:17:11;;;;;;;10.10;4.63;;;;;;;-0.44;100.00;95605.53;5032074;28;20414;-77
2021/12/07 05:38:29;;;;;;;9.30;4.53;;;;;;;-0.29;100.00;95635.47;5029536;28;21049;-77
2021/12/07 05:40:55;;;;;;;9.57;4.70;;;;;;;-0.32;100.00;95641.66;5040772;28;20471;-77
2021/12/07 05:43:21;;;;;;;8.63;4.37;;;;;;;-0.30;100.00;95651.91;5046623;28;20039;-77
2021/12/07 05:45:46;;;;;;;10.83;4.90;;;;;;;-0.25;100.00;95642.06;5037763;28;20021;-77
2021/12/07 05:48:15;;;;;;;7.50;4.03;;;;;;;-0.26;100.00;95645.59;5006744;28;20132;-77
2021/12/07 05:50:43;;;;;;;6.77;4.00;;;;;;;-0.24;100.00;95644.53;5018341;28;20036;-77
2021/12/07 05:53:10;;;;;;;7.03;3.70;;;;;;;-0.20;100.00;95652.91;5039934;28;20461;-77
2021/12/07 05:55:37;;;;;;;6.23;3.07;;;;;;;-0.20;100.00;95644.31;5031549;28;20459;-77
2021/12/07 05:58:04;;;;;;;8.17;3.97;;;;;;;-0.21;100.00;95647.84;5024892;28;20972;-77
2021/12/07 06:00:33;;;;;;;6.20;3.20;;;;;;;-0.19;100.00;95651.16;5036969;28;20971;-75
2021/12/07 06:03:03;;;;;;;7.93;3.30;;;;;;;-0.18;100.00;95657.97;5041276;28;20802;-76
2021/12/07 06:05:37;;;;;;;7.57;4.27;;;;;;;-0.25;100.00;95640.31;5034541;28;20860;-76
2021/12/07 06:08:04;;;;;;;8.13;3.90;;;;;;;-0.20;100.00;95652.06;5019750;28;21001;-79
2021/12/07 06:10:30;;;;;;;6.87;3.43;;;;;;;-0.20;100.00;95652.06;5010831;28;20468;-77
2021/12/07 06:12:56;;;;;;;8.30;3.27;;;;;;;-0.21;100.00;95660.75;5031097;28;20464;-76
2021/12/07 06:15:23;;;;;;;7.37;4.03;;;;;;;-0.21;100.00;95664.16;5035599;28;20507;-76
2021/12/07 06:17:52;;;;;;;6.83;3.40;;;;;;;-0.21;100.00;95653.00;5032335;28;20451;-77
2021/12/07 06:20:19;;;;;;;8.30;3.80;;;;;;;-0.21;100.00;95658.16;5040370;28;20467;-77
2021/12/07 06:22:45;;;;;;;7.57;3.67;;;;;;;-0.22;100.00;95654.78;5037513;28;20479;-77
2021/12/07 06:25:11;;;;;;;6.87;4.03;;;;;;;-0.26;100.00;95653.34;5035218;28;20444;-77
2021/12/07 06:27:39;;;;;;;8.03;4.17;;;;;;;-0.23;100.00;95660.88;5020011;28;20488;-77
2021/12/07 06:30:07;;;;;;;6.30;3.03;;;;;;;-0.27;100.00;95659.41;5027258;28;20034;-77
2021/12/07 06:32:32;;;;;;;13.07;4.47;;;;;;;-0.20;100.00;95659.81;5033547;28;20452;-77
2021/12/07 06:34:58;;;;;;;9.33;3.57;;;;;;;-0.22;100.00;95670.28;5020080;28;20559;-77
2021/12/07 06:37:24;;;;;;;8.17;3.67;;;;;;;-0.22;100.00;95666.88;5030643;28;20056;-77
2021/12/07 06:39:49;;;;;;;6.13;3.17;;;;;;;-0.23;100.00;95663.47;5016729;28;20502;-77
2021/12/07 06:42:15;;;;;;;6.27;3.00;;;;;;;-0.23;100.00;95668.63;5052458;28;20037;-76
2021/12/07 06:44:41;;;;;;;8.13;3.33;;;;;;;-0.22;100.00;95678.03;5040876;28;20078;-77
2021/12/07 06:47:08;;;;;;;6.07;3.40;;;;;;;-0.22;100.00;95667.69;5029033;28;20072;-79
2021/12/07 06:49:33;;;;;;;6.47;2.97;;;;;;;-0.20;100.00;95677.91;5016162;28;20095;-77
2021/12/07 06:51:59;;;;;;;10.07;3.70;;;;;;;-0.14;100.00;95680.06;5024074;28;20482;-77
2021/12/07 06:54:25;;;;;;;7.30;3.50;;;;;;;-0.20;100.00;95676.16;5008163;28;20029;-77
2021/12/07 06:56:53;;;;;;;8.77;3.60;;;;;;;-0.22;100.00;95685.78;5021335;28;20029;-77
2021/12/07 06:59:19;;;;;;;8.63;3.37;;;;;;;-0.19;100.00;95682.97;5038154;28;20522;-76
2021/12/07 07:01:45;;;;;;;7.30;2.90;;;;;;;-0.13;100.00;95684.31;5022477;28;20471;-79
2021/12/07 07:04:12;;;;;;;9.23;3.20;;;;;;;-0.19;100.00;95692.50;5011740;28;20463;-77
2021/12/07 07:06:39;;;;;;;7.23;3.53;;;;;;;-0.19;100.00;95693.31;5009805;28;20472;-77
2021/12/07 07:09:05;;;;;;;8.07;3.10;;;;;;;-0.20;100.00;95683.94;5013046;28;20472;-76
2021/12/07 07:11:31;;;;;;;6.17;3.10;;;;;;;-0.21;100.00;95695.16;5035799;28;20448;-77
2021/12/07 07:13:57;;;;;;;7.47;3.10;;;;;;;-0.26;100.00;95694.69;5030595;28;20626;-76
2021/12/07 07:16:23;;;;;;;5.27;2.70;;;;;;;-0.21;100.00;95690.00;5019009;28;20116;-78
2021/12/07 07:18:49;;;;;;;8.60;3.20;;;;;;;-0.25;100.00;95704.91;5033592;28;20539;-77
2021/12/07 07:21:14;;;;;;;10.10;4.30;;;;;;;-0.27;100.00;95709.38;5034240;28;20056;-76
2021/12/07 07:23:40;;;;;;;7.53;3.43;;;;;;;-0.24;100.00;95711.69;5009680;28;20041;-78
2021/12/07 07:26:07;;;;;;;7.60;2.90;;;;;;;-0.24;100.00;95716.88;5031470;28;20040;-77
2021/12/07 07:28:34;;;;;;;8.07;3.10;;;;;;;-0.25;100.00;95717.81;5014462;28;20044;-77
2021/12/07 07:31:02;;;;;;;7.20;3.67;;;;;;;-0.24;100.00;95724.63;5017123;28;20480;-78
2021/12/07 07:33:29;;;;;;;7.40;2.60;;;;;;;-0.18;100.00;95720.81;5021195;28;21137;-77
2021/12/07 07:35:55;;;;;;;5.47;2.53;;;;;;;-0.24;100.00;95729.78;5006792;28;20517;-77
2021/12/07 07:38:21;;;;;;;8.43;2.90;;;;;;;-0.12;100.00;95740.25;5040107;28;20464;-77
2021/12/07 07:40:47;;;;;;;6.47;2.90;;;;;;;-0.07;100.00;95744.16;5030544;28;20472;-80
2021/12/07 07:43:16;;;;;;;7.50;2.57;;;;;;;-0.02;100.00;95747.25;5025269;28;20434;-79
2021/12/07 07:46:06;;;;;;;6.15;2.67;;;;;;;0.02;100.00;95747.84;5025340;28;20475;-77
2021/12/07 07:48:32;;;;;;;6.43;2.80;;;;;;;0.09;100.00;95745.66;5010248;28;20565;-78
2021/12/07 07:50:58;;;;;;;9.37;3.30;;;;;;;0.07;100.00;95756.13;5008766;28;20044;-78
2021/12/07 07:53:25;;;;;;;7.83;2.40;;;;;;;0.14;100.00;95757.34;5013260;28;20108;-77
2021/12/07 07:55:56;;;;;;;8.70;3.03;;;;;;;0.23;100.00;95758.44;5010375;28;21037;-77
2021/12/07 07:58:21;;;;;;;6.70;3.13;;;;;;;0.20;100.00;95762.09;5035256;28;20559;-78
2021/12/07 08:00:48;;;;;;;5.83;2.47;;;;;;;0.27;100.00;95762.50;5034422;28;20476;-77
2021/12/07 08:03:14;;;;;;;7.63;2.53;;;;;;;0.26;100.00;95763.41;5029332;28;20033;-77
2021/12/07 08:05:40;;;;;;;6.83;2.40;;;;;;;0.56;100.00;95775.94;5024443;28;20545;-77
2021/12/07 08:08:07;;;;;;;7.60;3.33;;;;;;;0.79;100.00;95769.13;5033006;28;20464;-79
2021/12/07 08:10:33;;;;;;;4.90;3.00;;;;;;;0.79;100.00;95770.88;5028900;28;20789;-78
2021/12/07 08:13:02;;;;;;;4.50;2.20;;;;;;;0.77;100.00;95771.00;5044455;28;20044;-77
2021/12/07 08:15:30;;;;;;;6.43;2.83;;;;;;;0.75;100.00;95779.81;5029077;28;20825;-77
2021/12/07 08:17:57;;;;;;;5.97;2.90;;;;;;;0.54;100.00;95783.00;5010416;28;20457;-77
2021/12/07 08:20:26;;;;;;;6.50;2.77;;;;;;;0.63;100.00;95773.72;5028445;28;20461;-78
2021/12/07 08:22:52;;;;;;;8.03;2.13;;;;;;;0.66;100.00;95779.50;5044069;28;20505;-77
2021/12/07 08:25:18;;;;;;;6.53;2.73;;;;;;;0.92;100.00;95780.22;5021244;28;20037;-77
2021/12/07 08:27:44;;;;;;;5.90;2.60;;;;;;;0.77;100.00;95785.69;5031760;28;20071;-77
2021/12/07 08:30:12;;;;;;;5.20;2.47;;;;;;;0.69;100.00;95791.41;5007533;28;20029;-77
2021/12/07 08:32:44;;;;;;;7.50;2.50;;;;;;;0.59;100.00;95785.25;5007403;28;20548;-76
2021/12/07 08:35:12;;;;;;;6.57;2.33;;;;;;;0.65;100.00;95788.22;5009108;28;20456;-77
2021/12/07 08:37:38;;;;;;;7.23;2.57;;;;;;;0.65;100.00;95793.41;5024078;28;20487;-77
2021/12/07 08:40:05;;;;;;;7.20;2.70;;;;;;;0.69;100.00;95789.66;5037581;28;20570;-77
2021/12/07 08:42:30;;;;;;;8.30;2.80;;;;;;;0.68;100.00;95803.53;5020590;28;20037;-77
2021/12/07 08:44:56;;;;;;;5.97;2.47;;;;;;;0.70;100.00;95799.09;5019439;28;20466;-77
2021/12/07 08:47:22;;;;;;;5.40;2.33;;;;;;;0.79;100.00;95799.34;5025442;28;20089;-77
2021/12/07 08:49:48;;;;;;;8.13;2.90;;;;;;;0.72;100.00;95809.31;5017666;28;20044;-77
2021/12/07 08:52:13;;;;;;;11.83;3.50;;;;;;;0.60;100.00;95810.19;5020227;28;20022;-76
2021/12/07 08:59:52;;;;;;;8.50;3.20;;;;;;;0.62;100.00;95811.72;5021014;28;20539;-78
2021/12/07 09:02:21;;;;;;;9.40;3.07;;;;;;;0.83;100.00;95824.06;5009818;28;20536;-76
2021/12/07 09:04:48;;;;;;;8.90;3.50;;;;;;;0.83;100.00;95816.31;5004969;28;20044;-77
2021/12/07 09:07:15;;;;;;;5.80;2.80;;;;;;;1.14;100.00;95820.09;5044940;28;20539;-77
2021/12/07 09:09:43;;;;;;;7.37;3.50;;;;;;;1.11;100.00;95828.94;5030064;28;20467;-78
2021/12/07 09:12:12;;;;;;;8.27;3.13;;;;;;;1.12;100.00;95822.81;5042504;28;20491;-77
2021/12/07 09:14:38;;;;;;;5.97;2.60;;;;;;;1.41;100.00;95830.22;5031065;28;20474;-78
2021/12/07 09:17:05;;;;;;;8.63;2.60;;;;;;;1.29;100.00;95829.34;5026341;28;20456;-77
2021/12/07 09:19:33;;;;;;;7.53;3.33;;;;;;;1.21;100.00;95836.84;5001738;28;20476;-78
2021/12/07 09:21:59;;;;;;;17.53;6.13;;;;;;;1.06;100.00;95833.59;4994374;28;20448;-77
2021/12/07 09:24:25;;;;;;;17.27;6.80;;;;;;;1.09;100.00;95838.56;5034291;28;20456;-78
2021/12/07 09:26:51;;;;;;;18.83;5.83;;;;;;;1.04;100.00;95834.63;5014597;28;20468;-77
2021/12/07 09:29:17;;;;;;;7.87;3.73;;;;;;;1.01;100.00;95838.31;5035844;28;20033;-78
2021/12/07 09:31:44;;;;;;;9.43;3.47;;;;;;;1.18;100.00;95832.72;5007369;28;20025;-77
2021/12/07 09:34:11;;;;;;;10.13;2.70;;;;;;;1.11;100.00;95841.88;5005701;28;20495;-76
2021/12/07 09:36:39;;;;;;;9.57;3.10;;;;;;;1.07;100.00;95839.59;5034105;28;20498;-78
2021/12/07 09:39:08;;;;;;;8.40;2.40;;;;;;;1.09;100.00;95832.56;5031002;28;20562;-78
2021/12/07 09:41:34;;;;;;;8.53;2.70;;;;;;;1.03;100.00;95828.63;5022765;28;20502;-80
2021/12/07 09:44:00;;;;;;;7.90;2.90;;;;;;;0.97;100.00;95834.25;5030220;28;20574;-78
2021/12/07 09:46:27;;;;;;;10.03;3.70;;;;;;;0.97;100.00;95836.84;5011981;28;20541;-77
2021/12/07 09:48:54;;;;;;;7.03;3.07;;;;;;;1.02;100.00;95836.53;5027014;28;20516;-79
2021/12/07 09:51:23;;;;;;;8.23;2.70;;;;;;;0.98;100.00;95833.34;5023075;28;20468;-77
2021/12/07 09:53:50;;;;;;;10.53;3.13;;;;;;;1.01;100.00;95835.72;5008999;28;20510;-78
2021/12/07 09:56:20;;;;;;;10.93;3.67;;;;;;;1.04;100.00;95829.47;5024198;28;20460;-76
2021/12/07 09:58:48;;;;;;;8.87;3.30;;;;;;;0.97;100.00;95829.06;5013208;28;20452;-77
2021/12/07 10:01:14;;;;;;;8.33;3.47;;;;;;;1.02;100.00;95819.22;5028199;28;20468;-77
2021/12/07 10:03:41;;;;;;;9.50;3.20;;;;;;;1.00;100.00;95826.28;5001492;28;20038;-77
2021/12/07 10:06:07;;;;;;;8.53;3.10;;;;;;;1.05;100.00;95834.53;5015621;28;20831;-77
2021/12/07 10:08:34;;;;;;;9.83;3.37;;;;;;;1.06;100.00;95828.41;5011079;28;20473;-77
2021/12/07 10:11:02;;;;;;;8.73;3.07;;;;;;;1.50;100.00;95834.69;5029966;28;20463;-77
2021/12/07 10:13:30;;;;;;;10.50;3.77;;;;;;;1.27;100.00;95833.78;5039548;28;20567;-78
2021/12/07 10:15:58;;;;;;;9.57;2.80;;;;;;;1.26;100.00;95841.69;5019212;28;20467;-77
2021/12/07 10:18:31;;;;;;;9.43;3.03;;;;;;;1.18;100.00;95839.66;5029829;28;20026;-77
2021/12/07 10:21:00;;;;;;;7.35;2.90;;;;;;;1.19;100.00;95838.72;5037680;28;20451;-77
2021/12/07 10:23:36;;;;;;;8.40;3.17;;;;;;;1.23;100.00;95839.31;5038412;28;20095;-76
2021/12/07 10:26:16;;;;;;;9.97;3.00;;;;;;;1.21;100.00;95834.28;5024751;28;20965;-78
2021/12/07 10:28:55;;;;;;;9.50;3.73;;;;;;;1.18;100.00;95827.53;5027446;28;20040;-76
2021/12/07 10:31:32;;;;;;;12.43;3.23;;;;;;;1.20;100.00;95831.78;5025451;28;20071;-77
2021/12/07 10:34:11;;;;;;;3.87;2.00;;;;;;;1.10;100.00;95832.44;5043085;28;20466;-77
2021/12/07 10:36:44;;;;;;;11.40;2.50;;;;;;;1.11;100.00;95831.53;5029604;28;20506;-75
2021/12/07 10:39:24;;;;;;;6.93;2.90;;;;;;;1.01;100.00;95845.25;5018914;28;20456;-77
2021/12/07 10:42:05;;;;;;;8.13;2.60;;;;;;;1.09;100.00;95832.56;5014996;28;20053;-78
2021/12/07 10:44:37;;;;;;;6.90;2.60;;;;;;;1.17;100.00;95836.25;5019068;28;20029;-78
2021/12/07 10:47:13;;;;;;;10.17;2.60;;;;;;;1.21;100.00;95847.22;5036323;28;21008;-78
2021/12/07 10:49:52;;;;;;;8.20;2.50;;;;;;;1.14;100.00;95846.84;5012790;28;20831;-77
2021/12/07 10:52:33;;;;;;;6.37;2.50;;;;;;;1.17;100.00;95843.19;5040660;28;20460;-77
2021/12/07 10:55:16;;;;;;;7.13;2.63;;;;;;;1.15;100.00;95827.75;5016108;28;20462;-78
2021/12/07 10:57:50;;;;;;;8.03;2.83;;;;;;;1.22;100.00;95837.69;5028316;28;21040;-78
2021/12/07 11:00:40;;;;;;;7.53;2.40;;;;;;;1.19;100.00;95843.91;5013137;28;20471;-78
2021/12/07 11:03:11;;;;;;;6.07;2.33;;;;;;;1.18;100.00;95835.31;5014665;28;20041;-78
2021/12/07 11:05:44;;;;;;;10.33;4.73;;;;;;;1.29;100.00;95834.53;5022374;28;20033;-77
2021/12/07 11:08:10;;;;;;;6.68;4.00;;;;;;;1.26;100.00;95833.91;5016982;28;20045;-78
2021/12/07 11:10:41;;;;;;;9.97;3.13;;;;;;;1.33;100.00;95832.53;5020132;28;20017;-77
2021/12/07 11:13:34;;;;;;;8.17;2.87;;;;;;;1.32;100.00;95823.13;5028313;28;20541;-77
2021/12/07 11:16:14;;;;;;;5.87;2.40;;;;;;;1.36;100.00;95819.34;5039223;28;20052;-78
2021/12/07 11:18:45;;;;;;;10.50;3.53;;;;;;;1.52;100.00;95799.16;5033052;28;20452;-76
2021/12/07 11:21:17;;;;;;;6.77;2.73;;;;;;;1.60;100.00;95791.63;5026721;28;20056;-79
2021/12/07 11:23:51;;;;;;;9.90;3.63;;;;;;;1.70;100.00;95790.94;5028749;28;20032;-78
2021/12/07 11:31:57;;;;;;;6.20;2.70;;;;;;;3.04;100.00;95790.75;5030948;28;20033;-78
2021/12/07 11:34:49;;;;;;;8.40;2.87;;;;;;;2.87;100.00;95780.91;5038794;28;20108;-79
2021/12/07 11:37:15;;;;;;;9.63;3.27;;;;;;;2.83;100.00;95784.72;5031013;28;20037;-78
2021/12/07 11:39:50;;;;;;;6.30;2.50;;;;;;;2.73;100.00;95802.78;5032902;28;20653;-78
2021/12/07 11:42:25;;;;;;;8.50;3.17;;;;;;;2.95;100.00;95788.94;5043273;28;20036;-78
2021/12/07 11:45:02;;;;;;;6.13;2.40;;;;;;;3.82;100.00;95772.28;5023417;28;20032;-78
2021/12/07 11:47:40;;;;;;;7.27;3.27;;;;;;;4.57;100.00;95771.06;5030470;28;20033;-80
2021/12/07 11:50:20;;;;;;;7.60;2.20;;;;;;;4.97;100.00;95769.22;5003686;28;20060;-78
2021/12/07 11:52:48;;;;;;;8.50;2.53;;;;;;;5.15;100.00;95761.53;5008284;28;20705;-78
2021/12/07 11:55:15;;;;;;;5.60;2.17;;;;;;;4.71;100.00;95765.47;5010869;28;20033;-78
2021/12/07 11:57:41;;;;;;;6.87;2.00;;;;;;;5.07;100.00;95765.78;5009762;28;20046;-78
2021/12/07 12:00:12;;;;;;;6.97;1.90;;;;;;;5.18;100.00;95755.22;5014807;28;20099;-78
2021/12/07 12:02:39;;;;;;;8.20;2.27;;;;;;;4.36;100.00;95753.75;5008093;28;20043;-78
2021/12/07 12:05:06;;;;;;;6.73;2.13;;;;;;;3.69;100.00;95756.88;5006342;28;20030;-78
2021/12/07 12:07:32;;;;;;;4.77;1.63;;;;;;;3.22;100.00;95766.84;5017704;28;20073;-78
2021/12/07 12:09:59;;;;;;;8.23;1.93;;;;;;;2.89;100.00;95768.66;5021865;28;20040;-78
2021/12/07 12:12:24;;;;;;;7.77;2.90;;;;;;;2.69;100.00;95777.22;5034314;28;20057;-78
2021/12/07 12:15:22;;;;;;;8.23;3.30;;;;;;;3.01;100.00;95785.81;5031714;28;20095;-78
2021/12/07 12:17:51;;;;;;;9.17;4.10;;;;;;;3.45;100.00;95781.34;5041510;28;20029;-78
2021/12/07 12:20:32;;;;;;;7.87;3.17;;;;;;;3.43;100.00;95772.88;5007832;28;20037;-78
2021/12/07 12:23:16;;;;;;;7.37;2.60;;;;;;;3.86;100.00;95777.13;5020237;28;20076;-78
2021/12/07 12:25:41;;;;;;;10.43;2.60;;;;;;;3.25;100.00;95775.22;5027521;28;20067;-78
2021/12/07 12:28:07;;;;;;;7.47;2.37;;;;;;;3.14;100.00;95771.84;5028898;28;20029;-80
2021/12/07 12:30:42;;;;;;;10.97;2.80;;;;;;;3.13;100.00;95762.41;5030309;28;20575;-78
2021/12/07 12:33:11;;;;;;;7.60;2.50;;;;;;;2.84;100.00;95762.97;5010527;28;20044;-78
2021/12/07 12:35:44;;;;;;;9.13;2.10;;;;;;;2.57;100.00;95756.44;5023467;28;20043;-78
2021/12/07 12:38:16;;;;;;;6.20;1.73;;;;;;;2.47;100.00;95757.31;5023112;28;20037;-78
2021/12/07 12:40:42;;;;;;;6.77;3.10;;;;;;;2.32;100.00;95761.94;5007169;28;20115;-77
2021/12/07 12:43:08;;;;;;;6.47;1.90;;;;;;;2.32;100.00;95751.56;5010267;28;20029;-78
2021/12/07 12:45:39;;;;;;;8.10;2.20;;;;;;;2.35;100.00;95746.97;5013493;28;20034;-78
2021/12/07 12:48:20;;;;;;;9.80;2.17;;;;;;;2.40;100.00;95754.38;5015234;28;20029;-78
2021/12/07 12:50:50;;;;;;;7.40;2.50;;;;;;;2.38;100.00;95747.63;5022585;28;20057;-78
2021/12/07 12:53:34;;;;;;;9.00;3.17;;;;;;;2.50;100.00;95738.91;5012796;28;20395;-78
2021/12/07 12:56:02;;;;;;;;;;;;;;;2.35;100.00;95743.53;5025906;28;20029;-78
2021/12/07 12:58:28;;;;;;;8.73;2.20;;;;;;;2.18;100.00;95746.59;5019711;28;19936;-78
2021/12/07 13:01:13;;;;;;;8.30;3.10;;;;;;;2.22;100.00;95740.25;5000681;28;20390;-78
2021/12/07 13:04:10;;;;;;;10.80;3.93;;;;;;;2.18;100.00;95744.00;5009476;28;20620;-78
2021/12/07 13:06:50;;;;;;;13.00;2.90;;;;;;;2.10;100.00;95727.28;5022870;28;20035;-77
2021/12/07 13:09:19;;;;;;;8.27;2.70;;;;;;;2.13;100.00;95732.22;5037004;28;20026;-77
2021/12/07 13:11:46;;;;;;;7.83;3.20;;;;;;;2.08;100.00;95734.38;5024050;28;20383;-78
2021/12/07 13:14:21;;;;;;;11.80;3.47;;;;;;;2.05;100.00;95726.84;5021786;28;20501;-79
2021/12/07 13:17:00;;;;;;;12.37;3.97;;;;;;;2.17;100.00;95726.81;5005394;28;20029;-80
2021/12/07 13:19:28;;;;;;;12.20;2.93;;;;;;;2.26;100.00;95721.72;5028806;28;20510;-79
2021/12/07 13:22:03;;;;;;;10.47;4.13;;;;;;;2.45;100.00;95720.25;5029069;28;20017;-79